Time;durP1;ratioP1;P1;durP2;ratioP2;P2;SDS_P1;SDS_P2;PMS_P1;PMS_P2;Temp;Humidity;BMP_temperature;BMP_pressure;BME280_temperature;BME280_humidity;BME280_pressure;Samples;Min_cycle;Max_cycle;Signal;HPM_P1;HPM_P2
2023/07/30 00:02:12;;;;;;;4.80;2.80;;;;;;;21.77;64.77;98345.97;223786;182;138552;-65
2023/07/30 00:07:15;;;;;;;5.60;2.80;;;;;;;21.72;64.97;98346.25;223732;182;136964;-64
2023/07/30 00:12:18;;;;;;;4.80;2.70;;;;;;;21.67;65.10;98343.55;223745;182;145589;-64
2023/07/30 00:17:22;;;;;;;6.00;3.00;;;;;;;21.61;65.28;98345.40;223739;181;138784;-66
2023/07/30 00:22:25;;;;;;;7.20;2.90;;;;;;;21.57;65.43;98346.39;223794;182;137753;-65
2023/07/30 00:27:28;;;;;;;6.00;2.50;;;;;;;21.50;65.72;98348.46;223829;182;145504;-65
2023/07/30 00:32:32;;;;;;;4.90;2.80;;;;;;;21.47;65.89;98349.54;223718;181;138370;-66
2023/07/30 00:37:35;;;;;;;4.00;2.60;;;;;;;21.46;66.22;98339.59;223710;182;137803;-64
2023/07/30 00:42:38;;;;;;;5.30;2.70;;;;;;;21.47;66.25;98335.05;223828;182;145308;-65
2023/07/30 00:47:42;;;;;;;4.80;2.60;;;;;;;21.52;66.28;98331.70;223738;181;138738;-65
2023/07/30 00:52:45;;;;;;;5.10;2.80;;;;;;;21.51;66.15;98348.77;223786;182;139980;-66
2023/07/30 00:57:50;;;;;;;4.90;2.80;;;;;;;21.47;66.34;98355.33;223697;181;145319;-63
2023/07/30 01:08:53;;;;;;;5.60;2.50;;;;;;;21.43;66.29;98351.77;222960;182;886601;-64
2023/07/30 01:13:57;;;;;;;4.00;2.40;;;;;;;21.44;66.11;98350.23;223674;182;145193;-64
2023/07/30 01:19:04;;;;;;;3.60;2.50;;;;;;;21.46;66.15;98354.59;223774;182;138185;-62
2023/07/30 01:24:07;;;;;;;5.00;2.40;;;;;;;21.52;66.05;98352.17;223814;184;136849;-64
2023/07/30 01:29:21;;;;;;;5.20;2.50;;;;;;;21.58;65.84;98359.09;223792;182;146230;-64
2023/07/30 01:34:27;;;;;;;;;;;;;;;21.56;65.52;98362.09;223708;183;138849;-63
2023/07/30 01:39:33;;;;;;;3.00;2.40;;;;;;;21.50;65.51;98363.42;223721;183;128771;-64
2023/07/30 01:44:36;;;;;;;3.00;1.90;;;;;;;21.48;65.60;98356.40;223726;183;145354;-64
2023/07/30 01:49:40;;;;;;;5.40;2.40;;;;;;;21.48;65.54;98358.34;223604;182;138303;-64
2023/07/30 01:54:44;;;;;;;4.40;2.30;;;;;;;21.46;65.63;98361.32;223695;183;136661;-64
2023/07/30 01:59:47;;;;;;;3.80;2.20;;;;;;;21.43;65.89;98358.27;223631;183;145503;-64
2023/07/30 02:04:51;;;;;;;4.00;2.10;;;;;;;21.41;66.12;98355.48;223550;183;139503;-64
2023/07/30 02:09:54;;;;;;;4.70;2.70;;;;;;;21.43;66.31;98364.64;223628;183;140090;-64
2023/07/30 02:14:57;;;;;;;5.60;2.80;;;;;;;21.47;66.40;98363.82;223660;183;145534;-65
2023/07/30 02:20:01;;;;;;;4.50;2.70;;;;;;;21.45;66.36;98374.79;223629;183;141502;-64
2023/07/30 02:25:04;;;;;;;5.00;2.90;;;;;;;21.44;66.48;98385.60;223544;183;136952;-64
2023/07/30 02:30:08;;;;;;;5.20;2.70;;;;;;;21.41;66.67;98388.74;223643;183;145727;-64
2023/07/30 02:35:12;;;;;;;5.20;2.80;;;;;;;21.32;66.80;98382.48;223554;183;138441;-64
2023/07/30 02:40:15;;;;;;;3.90;2.30;;;;;;;21.23;67.10;98375.97;223588;184;137247;-64
2023/07/30 02:45:18;;;;;;;4.50;2.60;;;;;;;21.22;67.59;98378.95;223652;183;146504;-63
2023/07/30 02:50:21;;;;;;;6.90;2.80;;;;;;;21.20;67.51;98386.58;223762;183;138547;-64
2023/07/30 02:55:24;;;;;;;3.70;2.40;;;;;;;21.15;67.64;98380.39;223634;183;136332;-64
2023/07/30 03:00:27;;;;;;;4.10;2.30;;;;;;;21.09;67.98;98386.99;223652;183;145965;-64
2023/07/30 03:05:31;;;;;;;3.90;2.10;;;;;;;21.03;68.02;98398.89;223583;183;138065;-63
2023/07/30 03:10:36;;;;;;;4.00;2.30;;;;;;;20.92;68.50;98401.06;223619;184;137262;-64
2023/07/30 03:15:39;;;;;;;3.80;1.90;;;;;;;20.87;68.81;98394.42;223628;183;145217;-65
2023/07/30 03:20:43;;;;;;;5.00;2.10;;;;;;;20.85;69.16;98406.20;223727;183;139620;-64
2023/07/30 03:25:46;;;;;;;5.20;2.00;;;;;;;20.83;69.51;98403.22;223676;183;137326;-64
2023/07/30 03:30:49;;;;;;;5.50;2.00;;;;;;;20.81;69.72;98408.44;223640;183;145136;-62
2023/07/30 03:35:52;;;;;;;4.10;1.70;;;;;;;20.83;70.00;98408.09;223603;184;138883;-64
2023/07/30 03:40:56;;;;;;;5.10;2.00;;;;;;;20.82;69.88;98407.32;223595;183;139892;-64
2023/07/30 03:45:59;;;;;;;2.70;1.60;;;;;;;20.77;70.06;98408.35;223744;183;145445;-65
2023/07/30 03:51:03;;;;;;;3.50;1.50;;;;;;;20.76;69.83;98416.03;223687;183;139813;-65
2023/07/30 03:56:06;;;;;;;3.70;1.50;;;;;;;20.75;69.90;98426.20;223643;183;137357;-64
2023/07/30 04:01:09;;;;;;;4.50;1.80;;;;;;;20.77;69.55;98438.33;223667;180;145667;-64
2023/07/30 04:06:12;;;;;;;4.10;1.50;;;;;;;20.77;69.23;98439.02;223648;183;139624;-64
2023/07/30 04:11:16;;;;;;;3.70;1.30;;;;;;;20.76;69.14;98444.69;223624;184;137379;-65
2023/07/30 04:16:19;;;;;;;3.30;1.70;;;;;;;20.68;68.95;98449.42;223619;183;146469;-64
2023/07/30 04:21:23;;;;;;;4.60;1.30;;;;;;;20.65;68.94;98452.98;223640;183;138161;-63
2023/07/30 04:26:26;;;;;;;4.40;1.50;;;;;;;20.66;68.65;98453.05;223360;183;137896;-64
2023/07/30 04:31:35;;;;;;;4.00;1.60;;;;;;;20.66;68.70;98455.30;223632;183;145253;-64
2023/07/30 04:36:42;;;;;;;5.60;1.40;;;;;;;20.66;68.88;98464.11;223531;184;138655;-64
2023/07/30 04:41:47;;;;;;;2.20;1.50;;;;;;;20.65;68.84;98476.98;223609;183;138773;-62
2023/07/30 04:46:50;;;;;;;6.00;1.50;;;;;;;20.66;68.68;98493.24;223607;183;145872;-63
2023/07/30 04:51:54;;;;;;;3.00;1.70;;;;;;;20.64;68.80;98490.56;223493;182;138449;-62
2023/07/30 04:56:57;;;;;;;2.70;1.50;;;;;;;20.67;68.65;98493.02;223683;183;136445;-62
2023/07/30 05:02:01;;;;;;;2.70;1.30;;;;;;;20.75;68.62;98492.27;223431;183;282512;-61
2023/07/30 05:07:04;;;;;;;3.70;1.60;;;;;;;20.82;68.23;98494.52;223591;183;139552;-62
2023/07/30 05:12:08;;;;;;;2.00;1.30;;;;;;;20.91;67.88;98491.92;223641;183;139023;-62
2023/07/30 05:17:11;;;;;;;2.40;1.30;;;;;;;20.93;67.51;98494.05;223647;183;145198;-62
2023/07/30 05:22:14;;;;;;;1.90;1.20;;;;;;;20.95;67.01;98497.95;223658;183;137950;-63
2023/07/30 05:27:23;;;;;;;3.60;1.40;;;;;;;20.99;66.66;98506.63;223644;183;138068;-62
2023/07/30 05:32:26;;;;;;;2.70;1.40;;;;;;;21.00;66.12;98510.89;223663;184;145573;-62
2023/07/30 05:37:29;;;;;;;4.10;1.40;;;;;;;20.98;65.74;98515.66;223578;183;140189;-62
2023/07/30 05:42:32;;;;;;;2.10;1.30;;;;;;;20.95;65.54;98514.72;223666;183;136919;-63
2023/07/30 05:47:36;;;;;;;2.40;1.40;;;;;;;20.95;65.49;98508.06;223678;183;145313;-63
2023/07/30 05:52:39;;;;;;;1.70;1.20;;;;;;;21.02;65.18;98507.77;223587;183;138264;-62
2023/07/30 05:57:42;;;;;;;3.10;1.40;;;;;;;21.13;65.11;98516.95;223776;183;137137;-62
2023/07/30 06:02:45;;;;;;;2.70;1.40;;;;;;;21.23;64.78;98521.02;223614;183;148284;-62
2023/07/30 06:07:51;;;;;;;1.90;1.40;;;;;;;21.27;64.44;98518.09;223511;183;138846;-62
2023/07/30 06:12:54;;;;;;;3.40;1.40;;;;;;;21.32;64.53;98521.84;223649;183;136633;-63
2023/07/30 06:17:58;;;;;;;2.60;1.30;;;;;;;21.32;64.53;98522.69;223636;183;144940;-62
2023/07/30 06:23:01;;;;;;;2.40;1.60;;;;;;;21.28;64.41;98522.27;223611;183;139572;-62
2023/07/30 06:28:05;;;;;;;1.70;1.40;;;;;;;21.26;64.39;98520.48;223559;183;137123;-62
2023/07/30 06:33:09;;;;;;;3.00;1.50;;;;;;;21.27;64.70;98522.38;223669;183;145281;-62
2023/07/30 06:38:12;;;;;;;3.80;1.90;;;;;;;21.31;64.91;98522.64;223626;183;138540;-63
2023/07/30 06:43:15;;;;;;;4.20;1.70;;;;;;;21.42;65.14;98525.59;223592;183;140229;-62
2023/07/30 06:48:18;;;;;;;1.70;1.40;;;;;;;21.63;65.02;98524.57;223612;183;146167;-62
2023/07/30 06:53:22;;;;;;;2.40;1.40;;;;;;;21.77;63.66;98525.66;223609;183;138992;-62
2023/07/30 06:58:25;;;;;;;2.20;1.40;;;;;;;21.83;62.87;98522.41;223693;183;137018;-62
2023/07/30 07:03:28;;;;;;;4.30;1.70;;;;;;;21.88;62.20;98524.16;223610;183;144965;-63
2023/07/30 07:08:31;;;;;;;2.50;1.50;;;;;;;21.95;62.21;98521.52;223663;182;138425;-62
2023/07/30 07:13:34;;;;;;;2.80;1.60;;;;;;;22.03;61.93;98512.13;223651;183;136565;-63
2023/07/30 07:18:37;;;;;;;4.70;1.70;;;;;;;22.08;61.42;98514.60;223532;183;145929;-63
2023/07/30 07:23:41;;;;;;;3.10;1.70;;;;;;;22.12;60.66;98516.34;223589;183;139889;-62
2023/07/30 07:28:44;;;;;;;4.30;1.40;;;;;;;22.17;60.89;98510.99;223629;184;136597;-63
2023/07/30 07:33:47;;;;;;;2.30;1.60;;;;;;;22.17;60.70;98515.23;223625;183;145783;-62
2023/07/30 07:38:51;;;;;;;3.50;1.60;;;;;;;22.22;60.66;98525.46;223525;183;138386;-62
2023/07/30 07:43:54;;;;;;;3.80;2.00;;;;;;;22.32;60.43;98525.38;223783;183;136466;-62
2023/07/30 07:48:57;;;;;;;2.00;1.60;;;;;;;22.42;60.35;98525.02;223601;183;147433;-63
2023/07/30 07:54:00;;;;;;;2.70;1.70;;;;;;;22.50;60.09;98519.80;223395;183;139218;-62
2023/07/30 07:59:04;;;;;;;3.10;1.80;;;;;;;22.61;60.15;98507.79;223592;183;136996;-62
2023/07/30 08:04:07;;;;;;;2.90;1.60;;;;;;;22.74;60.01;98509.69;223468;183;146952;-61
2023/07/30 08:09:10;;;;;;;3.10;1.80;;;;;;;22.77;59.07;98509.42;223438;183;138812;-60
2023/07/30 08:14:14;;;;;;;2.60;1.90;;;;;;;22.84;58.54;98515.48;223645;183;140095;-60
2023/07/30 08:19:17;;;;;;;2.50;1.50;;;;;;;22.94;58.51;98523.84;223435;183;147191;-60
2023/07/30 08:24:23;;;;;;;3.30;1.50;;;;;;;23.04;57.89;98529.33;223483;183;138202;-61
2023/07/30 08:29:26;;;;;;;2.60;1.60;;;;;;;23.13;58.00;98524.27;223426;183;136924;-60
2023/07/30 08:34:29;;;;;;;2.20;1.50;;;;;;;23.24;58.32;98517.83;223372;183;147904;-60
2023/07/30 08:39:36;;;;;;;3.60;1.80;;;;;;;23.39;57.75;98512.77;223534;183;138229;-59
2023/07/30 08:44:41;;;;;;;2.10;1.70;;;;;;;23.47;57.06;98519.23;223719;183;137929;-60
2023/07/30 08:49:44;;;;;;;1.70;1.50;;;;;;;23.54;57.25;98514.14;223504;184;146855;-61
2023/07/30 08:54:48;;;;;;;1.80;1.70;;;;;;;23.61;56.58;98517.64;223463;183;138897;-60
2023/07/30 09:00:10;;;;;;;2.00;1.60;;;;;;;23.64;55.96;98517.94;223481;184;137093;-61
2023/07/30 09:05:13;;;;;;;2.60;1.50;;;;;;;23.69;55.97;98526.66;223415;183;146864;-62
2023/07/30 09:10:16;;;;;;;1.50;1.20;;;;;;;23.74;55.78;98530.45;223381;183;139657;-60
2023/07/30 09:15:31;;;;;;;2.10;1.70;;;;;;;23.80;55.43;98526.08;223530;183;137027;-61
2023/07/30 09:20:41;;;;;;;2.40;1.90;;;;;;;23.88;55.43;98526.89;223632;183;147260;-61
2023/07/30 09:25:48;;;;;;;1.80;1.50;;;;;;;23.99;54.62;98525.69;223415;183;138873;-59
2023/07/30 09:31:00;;;;;;;2.00;1.60;;;;;;;24.05;54.08;98525.47;223574;184;137252;-61
2023/07/30 09:36:25;;;;;;;8.40;1.70;;;;;;;24.14;53.89;98519.70;223634;182;147042;-61
2023/07/30 09:41:28;;;;;;;4.20;1.80;;;;;;;24.24;53.31;98512.72;223554;183;138977;-59
2023/07/30 09:46:31;;;;;;;2.20;1.50;;;;;;;24.33;52.82;98511.92;223580;183;137216;-59
2023/07/30 09:51:37;;;;;;;2.40;1.50;;;;;;;24.43;51.09;98508.19;223484;183;147078;-59
2023/07/30 09:56:42;;;;;;;2.40;1.50;;;;;;;24.51;50.81;98500.80;223568;183;138366;-59
2023/07/30 10:01:49;;;;;;;2.90;1.60;;;;;;;24.67;51.07;98499.15;223530;183;137617;-59
2023/07/30 10:06:56;;;;;;;2.10;1.40;;;;;;;24.80;50.94;98499.91;223476;183;147410;-60
2023/07/30 10:12:01;;;;;;;1.80;1.40;;;;;;;24.89;49.86;98503.85;223544;183;138798;-59
2023/07/30 10:17:05;;;;;;;1.90;1.70;;;;;;;24.97;49.61;98499.13;223544;183;137442;-59
2023/07/30 10:22:11;;;;;;;2.10;1.70;;;;;;;25.09;49.35;98502.01;223515;184;146787;-60
2023/07/30 10:27:24;;;;;;;2.30;1.70;;;;;;;25.16;48.89;98502.33;223447;183;140559;-57
2023/07/30 10:32:38;;;;;;;2.40;1.70;;;;;;;25.25;48.46;98495.65;223648;183;137021;-62
2023/07/30 10:37:47;;;;;;;1.80;1.30;;;;;;;25.31;48.30;98499.41;223576;183;147120;-62
2023/07/30 10:42:51;;;;;;;1.70;1.60;;;;;;;25.40;48.40;98499.66;223454;183;139856;-60
2023/07/30 10:48:04;;;;;;;3.40;1.80;;;;;;;25.48;48.12;98498.27;223620;184;136812;-62
2023/07/30 10:53:08;;;;;;;1.30;1.20;;;;;;;25.56;47.84;98493.64;223630;183;147174;-62
2023/07/30 10:58:13;;;;;;;2.80;1.50;;;;;;;25.63;46.91;98492.40;223303;183;138409;-61
2023/07/30 11:03:16;;;;;;;1.60;1.50;;;;;;;25.66;47.06;98486.59;223589;183;138565;-62
2023/07/30 11:08:36;;;;;;;1.70;1.60;;;;;;;25.78;47.39;98487.94;223643;183;149226;-62
2023/07/30 11:13:41;;;;;;;1.70;1.40;;;;;;;25.86;47.23;98479.76;223389;183;139165;-62
2023/07/30 11:18:47;;;;;;;1.90;1.50;;;;;;;25.95;47.09;98477.45;223609;183;137053;-63
2023/07/30 11:23:51;;;;;;;2.60;1.50;;;;;;;26.04;45.84;98478.42;223556;183;147147;-62
2023/07/30 11:28:56;;;;;;;3.80;1.50;;;;;;;26.03;45.84;98475.29;223603;183;138620;-64
2023/07/30 11:34:00;;;;;;;1.90;1.60;;;;;;;26.03;45.13;98473.35;223617;183;139722;-62
2023/07/30 11:39:04;;;;;;;3.20;1.40;;;;;;;26.01;45.22;98463.83;223537;183;147079;-63
2023/07/30 11:44:07;;;;;;;2.20;1.60;;;;;;;26.02;45.67;98466.55;223601;182;138404;-62
2023/07/30 11:49:18;;;;;;;2.50;1.80;;;;;;;26.00;45.36;98468.98;223486;183;137514;-62
2023/07/30 11:54:25;;;;;;;1.80;1.60;;;;;;;25.93;45.23;98472.08;223585;183;147102;-63
2023/07/30 11:59:30;;;;;;;2.70;1.70;;;;;;;25.90;45.72;98475.39;223538;184;138510;-61
2023/07/30 12:04:45;;;;;;;1.90;1.50;;;;;;;25.90;45.85;98465.58;223609;183;137290;-63
2023/07/30 12:10:08;;;;;;;3.10;1.90;;;;;;;25.85;45.76;98472.40;223489;183;147200;-62
2023/07/30 12:15:12;;;;;;;2.10;1.90;;;;;;;25.77;46.58;98469.33;223581;183;138133;-62
2023/07/30 12:20:15;;;;;;;2.40;1.60;;;;;;;25.71;46.52;98476.52;223544;183;136522;-62
2023/07/30 12:25:18;;;;;;;2.20;1.80;;;;;;;25.62;45.97;98474.80;223622;183;147081;-62
2023/07/30 12:30:22;;;;;;;3.70;1.50;;;;;;;25.56;46.33;98465.52;223616;183;140094;-63
2023/07/30 12:35:25;;;;;;;1.70;1.60;;;;;;;25.46;46.80;98462.09;223527;183;137324;-61
2023/07/30 12:40:33;;;;;;;3.70;1.80;;;;;;;25.35;47.81;98466.66;223675;184;148326;-61
2023/07/30 12:45:37;;;;;;;2.40;1.70;;;;;;;25.25;48.03;98463.89;223515;183;140379;-62
2023/07/30 12:50:41;;;;;;;6.50;2.00;;;;;;;25.18;48.11;98461.15;223657;183;136601;-62
2023/07/30 12:55:44;;;;;;;4.00;1.70;;;;;;;25.14;47.63;98459.41;223550;180;147154;-61
2023/07/30 13:00:47;;;;;;;2.30;1.70;;;;;;;25.10;47.85;98456.48;223663;182;138823;-62
2023/07/30 13:05:50;;;;;;;4.10;2.00;;;;;;;25.07;47.88;98455.29;223748;182;138201;-62
2023/07/30 13:10:53;;;;;;;3.20;1.90;;;;;;;25.04;48.13;98451.59;223656;182;147599;-62
2023/07/30 13:15:57;;;;;;;3.90;1.70;;;;;;;25.06;48.08;98447.23;223680;182;138469;-62
2023/07/30 13:21:01;;;;;;;2.70;2.20;;;;;;;25.08;48.43;98443.63;223616;182;139667;-62
2023/07/30 13:26:04;;;;;;;3.60;2.00;;;;;;;25.14;48.65;98451.50;223651;182;147137;-61
2023/07/30 13:31:07;;;;;;;3.90;1.90;;;;;;;25.15;48.63;98446.89;223515;182;138997;-62
2023/07/30 13:36:13;;;;;;;2.30;1.90;;;;;;;25.17;48.59;98444.16;223600;182;137106;-62
2023/07/30 13:41:18;;;;;;;2.00;1.80;;;;;;;25.21;48.42;98437.44;223614;183;147898;-63
2023/07/30 13:46:21;;;;;;;3.10;1.90;;;;;;;25.39;47.90;98440.69;223559;182;139901;-62
2023/07/30 13:51:26;;;;;;;2.40;1.90;;;;;;;25.51;48.02;98434.94;223690;182;137266;-62
2023/07/30 13:56:30;;;;;;;1.90;1.70;;;;;;;25.65;47.44;98433.83;223572;183;147173;-62
2023/07/30 14:01:33;;;;;;;1.70;1.50;;;;;;;25.69;46.73;98434.81;223599;180;138332;-62
2023/07/30 14:06:36;;;;;;;2.30;1.60;;;;;;;25.67;46.99;98426.08;223583;182;137024;-64
2023/07/30 14:11:45;;;;;;;2.90;1.80;;;;;;;25.66;47.14;98430.14;223673;183;149103;-64
2023/07/30 14:16:48;;;;;;;3.60;1.90;;;;;;;25.59;47.09;98432.31;223645;182;139963;-63
2023/07/30 14:21:51;;;;;;;3.10;1.60;;;;;;;25.54;47.13;98431.67;223568;182;136755;-63
2023/07/30 14:26:55;;;;;;;2.30;1.90;;;;;;;25.45;46.94;98440.17;223503;183;146816;-61
2023/07/30 14:31:59;;;;;;;2.40;1.60;;;;;;;25.41;46.94;98437.52;223591;183;138615;-63
2023/07/30 14:37:02;;;;;;;2.70;2.10;;;;;;;25.36;46.72;98434.90;223628;182;137488;-61
2023/07/30 14:42:05;;;;;;;19.20;13.30;;;;;;;25.34;47.05;98430.38;223594;182;147272;-60
2023/07/30 14:47:10;;;;;;;4.10;2.70;;;;;;;25.33;47.27;98422.35;223710;182;138487;-61
2023/07/30 14:52:13;;;;;;;2.80;1.80;;;;;;;25.28;46.63;98421.09;223688;182;137397;-66
2023/07/30 14:57:17;;;;;;;4.10;1.80;;;;;;;25.23;46.36;98416.73;223760;183;147717;-68
2023/07/30 15:02:20;;;;;;;122.60;101.80;;;;;;;25.24;46.75;98408.70;223427;182;139703;-65
2023/07/30 15:07:25;;;;;;;7.00;4.10;;;;;;;25.18;47.28;98407.09;223683;183;138519;-64
2023/07/30 15:12:28;;;;;;;3.40;2.30;;;;;;;25.18;47.56;98404.08;223540;183;147374;-64
2023/07/30 15:17:34;;;;;;;2.30;1.90;;;;;;;25.18;47.89;98401.27;223625;182;138224;-65
2023/07/30 15:22:37;;;;;;;4.90;2.00;;;;;;;25.18;48.02;98399.42;223709;182;136909;-64
2023/07/30 15:27:41;;;;;;;17.80;14.00;;;;;;;25.18;47.89;98389.49;223742;182;146824;-68
2023/07/30 15:32:44;;;;;;;4.80;2.50;;;;;;;25.16;47.72;98380.06;223631;182;138598;-66
2023/07/30 15:37:47;;;;;;;2.60;1.80;;;;;;;25.20;47.61;98376.42;223628;182;137373;-66
2023/07/30 15:42:51;;;;;;;24.50;20.10;;;;;;;25.31;47.29;98373.98;223567;182;147138;-66
2023/07/30 15:48:10;;;;;;;89.40;80.10;;;;;;;25.39;46.60;98370.44;223629;183;138597;-64
2023/07/30 15:53:13;;;;;;;3.00;2.70;;;;;;;25.48;46.82;98366.77;223541;182;137845;-69
2023/07/30 15:58:17;;;;;;;2.80;1.80;;;;;;;25.57;46.61;98367.29;223615;182;147181;-65
2023/07/30 16:03:20;;;;;;;1.70;1.50;;;;;;;25.59;46.69;98368.80;223667;182;138457;-67
2023/07/30 16:08:23;;;;;;;30.40;26.60;;;;;;;25.57;46.29;98368.33;223711;182;137015;-65
2023/07/30 16:13:26;;;;;;;6.70;3.60;;;;;;;25.57;46.43;98376.12;223695;183;148405;-65
2023/07/30 16:18:29;;;;;;;2.40;1.80;;;;;;;25.63;46.28;98380.70;223613;183;138151;-65
2023/07/30 16:23:33;;;;;;;3.30;1.70;;;;;;;25.58;46.35;98379.90;223897;182;137915;-65
2023/07/30 16:28:36;;;;;;;2.40;1.70;;;;;;;25.52;46.32;98377.88;223659;182;147889;-64
2023/07/30 16:33:39;;;;;;;3.00;1.70;;;;;;;25.46;46.14;98382.57;223639;183;138963;-68
2023/07/30 16:38:43;;;;;;;1.90;1.60;;;;;;;25.42;45.95;98389.18;223608;182;137451;-63
2023/07/30 16:43:46;;;;;;;3.70;1.60;;;;;;;25.38;46.15;98397.72;223665;182;146925;-66
2023/07/30 16:48:49;;;;;;;2.00;1.70;;;;;;;25.35;46.37;98399.05;223687;182;138637;-64
2023/07/30 16:53:55;;;;;;;2.50;2.00;;;;;;;25.30;46.33;98402.61;223795;182;136608;-65
2023/07/30 16:58:58;;;;;;;4.00;2.00;;;;;;;25.26;46.28;98409.45;223606;182;146585;-63
2023/07/30 17:04:02;;;;;;;52.80;41.20;;;;;;;25.22;46.30;98407.56;223600;182;138604;-65
2023/07/30 17:09:06;;;;;;;7.10;6.30;;;;;;;25.19;46.40;98418.08;223652;182;137190;-64
2023/07/30 17:14:10;;;;;;;2.80;2.10;;;;;;;25.13;46.24;98426.92;223585;183;147351;-66
2023/07/30 17:19:13;;;;;;;2.50;1.70;;;;;;;25.05;46.18;98437.48;223573;183;139599;-64
2023/07/30 17:24:16;;;;;;;2.10;1.80;;;;;;;24.97;46.52;98438.22;223583;182;137160;-64
2023/07/30 17:29:20;;;;;;;2.40;1.80;;;;;;;24.89;46.87;98441.95;223666;183;148964;-65
2023/07/30 17:34:23;;;;;;;2.40;1.90;;;;;;;24.83;47.04;98449.50;223648;182;139125;-65
2023/07/30 17:39:26;;;;;;;4.10;1.80;;;;;;;24.75;47.43;98450.34;223627;182;138116;-66
2023/07/30 17:44:30;;;;;;;3.50;2.00;;;;;;;24.66;47.51;98450.95;223610;183;147443;-67
2023/07/30 17:49:33;;;;;;;58.60;52.50;;;;;;;24.58;47.92;98456.21;223597;183;138815;-66
2023/07/30 17:54:36;;;;;;;9.20;7.50;;;;;;;24.52;48.29;98456.69;223675;182;137996;-65
2023/07/30 17:59:39;;;;;;;2.70;2.30;;;;;;;24.48;48.68;98456.71;223612;182;146934;-64
2023/07/30 18:04:43;;;;;;;4.60;2.10;;;;;;;24.40;49.24;98463.95;223522;183;138239;-64
2023/07/30 18:09:47;;;;;;;15.30;2.50;;;;;;;24.30;49.87;98467.91;223635;182;137130;-65
2023/07/30 18:14:50;;;;;;;4.20;2.70;;;;;;;24.24;50.38;98476.32;223563;182;147454;-67
2023/07/30 18:19:53;;;;;;;3.60;2.20;;;;;;;24.19;50.77;98485.27;223354;182;138522;-65
2023/07/30 18:24:56;;;;;;;2.40;2.00;;;;;;;24.15;51.09;98489.88;223604;182;137017;-64
2023/07/30 18:29:59;;;;;;;4.70;3.20;;;;;;;24.10;51.38;98497.86;223661;182;147067;-66
2023/07/30 18:35:03;;;;;;;4.70;2.20;;;;;;;24.04;51.37;98504.09;223593;182;139323;-65
2023/07/30 18:40:07;;;;;;;3.30;2.40;;;;;;;23.99;51.71;98510.02;223689;182;137682;-65
2023/07/30 18:45:10;;;;;;;5.70;2.50;;;;;;;23.93;51.98;98510.54;223660;182;147423;-67
2023/07/30 18:50:14;;;;;;;7.80;2.50;;;;;;;23.88;52.23;98511.86;223658;182;139190;-66
2023/07/30 18:55:17;;;;;;;4.70;2.40;;;;;;;23.87;52.37;98519.13;223648;183;137411;-65
2023/07/30 19:00:21;;;;;;;7.20;2.60;;;;;;;23.84;52.57;98519.77;223629;182;147745;-65
2023/07/30 19:05:24;;;;;;;3.70;2.80;;;;;;;23.79;52.99;98519.31;223650;183;140680;-65
2023/07/30 19:10:28;;;;;;;4.40;2.90;;;;;;;23.73;53.25;98512.50;223769;182;137243;-66
2023/07/30 19:15:31;;;;;;;5.30;3.10;;;;;;;23.65;53.88;98509.27;223661;182;148031;-65
2023/07/30 19:20:34;;;;;;;7.00;2.70;;;;;;;23.58;54.16;98510.67;223659;182;139472;-64
2023/07/30 19:25:45;;;;;;;3.40;2.60;;;;;;;23.51;54.55;98515.91;223621;183;137460;-64
2023/07/30 19:30:49;;;;;;;4.60;2.80;;;;;;;23.45;54.79;98521.04;223671;183;148373;-65
2023/07/30 19:35:53;;;;;;;4.30;3.00;;;;;;;23.39;55.59;98524.02;223713;183;138276;-64
2023/07/30 19:40:56;;;;;;;6.30;2.90;;;;;;;23.32;56.08;98520.09;223663;182;137668;-65
2023/07/30 19:45:59;;;;;;;5.20;3.20;;;;;;;23.25;56.41;98524.80;223701;182;147928;-65
2023/07/30 19:51:03;;;;;;;5.60;2.70;;;;;;;23.14;57.15;98531.89;223655;182;138266;-64
2023/07/30 19:56:06;;;;;;;5.60;2.90;;;;;;;23.06;57.10;98533.58;223506;183;136464;-64
2023/07/30 20:01:13;;;;;;;4.60;3.20;;;;;;;23.01;58.03;98526.18;223626;182;147637;-66
2023/07/30 20:06:18;;;;;;;5.70;3.60;;;;;;;22.89;58.73;98527.73;223673;183;139223;-64
2023/07/30 20:11:24;;;;;;;5.40;3.40;;;;;;;22.82;58.78;98538.83;223722;183;137318;-62
2023/07/30 20:16:27;;;;;;;5.00;3.30;;;;;;;22.79;59.33;98539.37;223595;183;148950;-63
2023/07/30 20:21:44;;;;;;;6.90;3.30;;;;;;;22.75;59.04;98555.48;222148;182;138455;-81
2023/07/30 20:26:48;;;;;;;5.60;3.10;;;;;;;22.75;59.56;98557.78;223591;179;137248;-62
2023/07/30 20:31:51;;;;;;;5.70;3.00;;;;;;;22.76;59.54;98560.36;223576;183;147353;-63
2023/07/30 20:36:55;;;;;;;5.80;3.00;;;;;;;22.74;59.32;98557.20;223528;183;139015;-63
2023/07/30 20:42:08;;;;;;;5.30;3.50;;;;;;;22.71;59.50;98551.46;223553;182;136792;-63
2023/07/30 20:47:11;;;;;;;9.20;3.50;;;;;;;22.69;59.64;98552.20;223657;182;147913;-63
2023/07/30 20:52:15;;;;;;;4.80;3.60;;;;;;;22.68;59.71;98554.68;223589;182;138375;-63
2023/07/30 20:57:18;;;;;;;6.40;3.50;;;;;;;22.67;59.49;98556.08;223592;183;137906;-62
2023/07/30 21:02:21;;;;;;;3.90;3.00;;;;;;;22.65;59.73;98551.58;223597;182;147841;-61
2023/07/30 21:07:24;;;;;;;8.50;3.40;;;;;;;22.64;59.96;98554.03;223511;182;140700;-61
2023/07/30 21:12:27;;;;;;;8.30;3.10;;;;;;;22.63;60.52;98550.93;223698;181;137220;-64
2023/07/30 21:17:31;;;;;;;10.10;3.20;;;;;;;22.62;60.15;98547.77;223612;182;147149;-63
2023/07/30 21:22:34;;;;;;;5.80;3.50;;;;;;;22.61;60.37;98550.48;223544;182;138249;-63
2023/07/30 21:27:37;;;;;;;6.30;3.30;;;;;;;22.59;59.99;98551.29;223521;182;140572;-64
2023/07/30 21:32:41;;;;;;;5.50;3.20;;;;;;;22.58;60.02;98554.36;223509;182;147115;-64
2023/07/30 21:37:44;;;;;;;5.80;3.70;;;;;;;22.56;60.25;98545.63;223536;182;138450;-65
2023/07/30 21:42:47;;;;;;;6.90;3.20;;;;;;;22.54;60.25;98552.70;223610;182;139327;-62
2023/07/30 21:47:53;;;;;;;5.60;3.20;;;;;;;22.53;60.36;98558.86;223591;182;147845;-62
2023/07/30 21:52:57;;;;;;;8.40;3.60;;;;;;;22.49;60.72;98562.71;223535;182;138456;-64
2023/07/30 21:58:00;;;;;;;4.70;3.00;;;;;;;22.47;60.81;98563.67;223454;182;137568;-64
2023/07/30 22:03:03;;;;;;;7.30;2.90;;;;;;;22.48;61.00;98560.11;223417;183;150233;-63
2023/07/30 22:08:07;;;;;;;6.20;3.20;;;;;;;22.49;60.75;98558.42;223255;183;138852;-61
2023/07/30 22:13:13;;;;;;;4.90;2.90;;;;;;;22.49;60.61;98555.14;223500;183;136590;-64
2023/07/30 22:18:17;;;;;;;5.50;2.70;;;;;;;22.46;60.42;98555.11;223548;183;147856;-62
2023/07/30 22:23:20;;;;;;;4.40;2.50;;;;;;;22.43;60.39;98555.48;223328;182;138456;-64
2023/07/30 22:28:24;;;;;;;4.80;2.80;;;;;;;22.38;60.45;98551.89;223405;183;137229;-65
2023/07/30 22:33:27;;;;;;;4.60;3.10;;;;;;;22.32;60.83;98549.16;223411;183;146965;-62
2023/07/30 22:38:38;;;;;;;4.10;2.90;;;;;;;22.25;60.67;98542.65;223336;182;138406;-64
2023/07/30 22:43:41;;;;;;;7.20;3.10;;;;;;;22.14;60.77;98542.99;223489;182;138406;-64
2023/07/30 22:48:44;;;;;;;4.90;3.30;;;;;;;22.03;60.87;98537.94;223521;183;147053;-64
2023/07/30 22:53:47;;;;;;;5.40;2.90;;;;;;;21.93;61.00;98536.92;223503;182;138318;-63
2023/07/30 22:58:51;;;;;;;6.30;2.90;;;;;;;21.84;61.03;98540.95;223513;183;137120;-64
2023/07/30 23:03:54;;;;;;;6.00;2.80;;;;;;;21.75;61.29;98540.84;223664;182;146926;-65
2023/07/30 23:08:57;;;;;;;4.30;2.90;;;;;;;21.64;61.77;98542.95;223651;183;140235;-61
2023/07/30 23:14:00;;;;;;;5.30;3.20;;;;;;;21.53;61.99;98545.48;223669;182;136843;-63
2023/07/30 23:19:03;;;;;;;5.50;3.00;;;;;;;21.44;62.18;98545.54;223677;183;150253;-63
2023/07/30 23:24:10;;;;;;;4.40;2.80;;;;;;;21.37;62.41;98547.98;223559;182;139982;-62
2023/07/30 23:29:23;;;;;;;4.30;2.70;;;;;;;21.35;62.70;98551.10;223570;183;138411;-62
2023/07/30 23:34:26;;;;;;;7.30;3.20;;;;;;;21.39;62.39;98554.20;223628;182;147065;-63
2023/07/30 23:39:30;;;;;;;4.70;2.90;;;;;;;21.39;62.30;98550.13;223581;183;138548;-63